WEATHER DATA

TODAY
Time Temp. Dewp. Hum. Wind dir Wind speed Wind gust Bar. 1h Prec. 24h Prec.
00:01 10.5 10.5 100 270 0.3 0.8 1020.4 0.0000 0.0000
00:12 10.4 10.4 100 270 0.3 0.8 1020.4 0.0000 0.0000
00:31 10.2 10.2 100 270 0.3 0.6 1020.5 0.0000 0.0000
00:42 10.1 10.1 100 45 0.3 0.6 1020.4 0.0000 0.0000
00:52 10.1 10.1 100 52 0.3 0.6 1020.3 0.0000 0.0000
01:12 10 10 100 49 0.3 0.6 1020.4 0.0000 0.0000
01:42 9.9 9.9 100 90 0.3 0.6 1020.5 0.0000 0.0000
01:52 9.8 9.8 100 45 0.3 0.6 1020.4 0.0000 0.0000
02:02 9.7 9.7 100 0 0.3 0.6 1020.4 0.0000 0.0000
02:12 9.7 9.7 100 270 0.3 0.6 1020.6 0.0000 0.0000
02:22 9.6 9.6 100 225 0.3 0.6 1020.4 0.0000 0.0000
02:32 9.5 9.5 100 28 0.3 0.8 1020.5 0.0000 0.0000
02:42 9.4 9.4 100 270 0.3 0.6 1020.5 0.0000 0.0000
02:52 9.3 9.3 100 225 0.3 0.6 1020.3 0.0000 0.0000
03:03 9.2 9.2 100 270 0.3 0.6 1020.3 0.0000 0.0000
03:12 9.1 9.1 100 315 0.3 0.6 1020.2 0.0000 0.0000
03:22 9 9 100 236 0.3 0.8 1020.3 0.0000 0.0000
03:33 8.9 8.9 100 15 0.3 0.6 1020.3 0.0000 0.0000
04:02 8.6 8.6 100 315 0.3 0.6 1020.4 0.0000 0.0000
04:23 8.4 8.4 100 4 0.3 0.6 1020.4 0.0000 0.0000
04:48 8.3 8.3 100 270 0.3 0.8 1020.3 0.0000 0.0000
05:07 8.1 8.1 100 315 0.3 0.6 1020.3 0.0000 0.0000
05:18 8.1 8.1 100 90 0.3 0.6 1020.2 0.0000 0.0000
05:28 8.2 8.2 100 45 0.3 0.8 1020.1 0.0000 0.0000
05:37 8.2 8.2 100 336 0.3 0.6 1020.3 0.0000 0.0000
05:48 8.3 8.3 100 329 0.3 0.6 1020.4 0.0000 0.0000
05:58 8.3 8.3 100 324 0.3 0.6 1020.4 0.0000 0.0000
06:08 8.4 8.4 100 315 0.3 0.6 1020.3 0.0000 0.0000
06:18 8.4 8.4 100 322 0.3 0.8 1020.5 0.0000 0.0000
06:28 8.5 8.5 100 305 0.3 0.8 1020.7 0.0000 0.0000
06:38 8.6 8.6 100 320 0.3 1.4 1020.6 0.0000 0.0000
06:48 8.8 8.8 100 45 0.3 0.8 1020.6 0.0000 0.0000
07:04 9.3 9.3 100 90 0.3 0.8 1020.8 0.0000 0.0000
07:15 9.5 9.5 100 90 0.6 0.8 1020.7 0.0000 0.0000
07:25 9.7 9.7 100 90 0.3 0.6 1020.7 0.0000 0.0000
07:34 9.8 9.8 100 90 0.3 0.6 1020.8 0.0000 0.0000
07:45 9.9 9.9 100 90 0.3 0.6 1020.9 0.0000 0.0000
07:55 10 10 100 90 0.3 0.6 1020.7 0.0000 0.0000
08:05 10.2 10.2 100 90 0.3 1.1 1020.7 0.0000 0.0000
08:25 10.3 10.3 100 323 0.3 0.8 1020.9 0.0000 0.0000
08:35 10.4 10.4 100 45 0.3 0.6 1020.9 0.0000 0.0000
08:45 10.4 10.4 100 26 0.3 0.8 1020.9 0.0000 0.0000
08:55 10.4 10.4 100 90 0.3 1.1 1020.7 0.0000 0.0000
09:15 10.4 10.4 100 270 0.3 0.8 1020.7 0.0000 0.0000
09:25 10.4 10.4 100 345 0.3 1.1 1020.8 0.0000 0.0000
09:40 10.5 10.5 100 30 0.3 0.8 1021 0.0000 0.0000
09:55 10.4 10.4 100 90 0.3 1.4 1021.2 0.0000 0.0000
10:06 10.5 10.5 100 45 0.3 1.1 1021 0.0000 0.0000
10:25 10.6 10.6 100 90 0.3 0.8 1021.1 0.0000 0.0000
10:36 10.6 10.6 100 45 0.3 0.6 1021.1 0.0000 0.0000
10:45 10.7 10.7 100 36 0.3 0.8 1021 0.0000 0.0000
10:55 10.8 10.8 100 233 0.6 1.4 1021 0.0000 0.0000
11:05 11 11 100 222 0.6 1.7 1020.9 0.0000 0.0000
11:16 11 11 100 270 0.6 1.7 1020.8 0.0000 0.0000
11:25 11.1 11.1 100 172 0.6 1.4 1020.7 0.0000 0.0000
11:40 11.2 11.2 100 135 0.6 1.1 1020.7 0.0000 0.0000
11:51 11.3 11.3 100 90 0.3 0.6 1020.8 0.0000 0.0000
12:00 11.4 11.4 100 90 0.3 0.8 1020.7 0.0000 0.0000
12:10 11.4 11.4 100 90 0.3 0.8 1020.6 0.0000 0.0000
12:21 11.5 11.5 100 90 0.6 1.4 1020.6 0.0000 0.0000
12:31 11.6 11.6 100 90 0.6 1.1 1020.5 0.0000 0.0000
12:40 11.7 11.7 100 90 0.6 0.8 1020.5 0.0000 0.0000
12:51 11.8 11.8 100 90 0.6 1.1 1020.5 0.0000 0.0000
13:01 11.8 11.8 100 90 0.6 1.1 1020.4 0.0000 0.0000
13:11 11.9 11.9 100 90 0.6 1.1 1020.4 0.0000 0.0000
13:20 11.9 11.9 100 90 0.6 0.8 1020.3 0.0000 0.0000
13:31 12 12 100 90 0.3 0.8 1020.4 0.0000 0.0000
13:41 12.1 12.1 100 90 0.6 1.1 1020.4 0.0000 0.0000
13:50 12.2 12.2 100 122 0.6 1.1 1020.4 0.0000 0.0000
14:01 12.2 12.2 100 90 0.6 1.1 1020.4 0.0000 0.0000
14:11 12.2 12.2 100 23 0.3 1.1 1020.3 0.0000 0.0000
14:21 12.2 12.2 100 66 0.6 1.1 1020.1 0.0000 0.0000
14:56 12.3 12.3 100 57 0.3 1.1 1020 0.0000 0.0000
15:06 12.3 12.3 100 72 0.6 1.7 1019.8 0.0000 0.0000
15:16 12.3 12.3 100 90 0.6 1.1 1019.6 0.0000 0.0000
15:26 12.3 12.3 100 71 0.6 1.4 1019.4 0.0000 0.0000
15:46 12.4 12.4 100 90 0.6 1.1 1019.2 0.0000 0.0000
15:56 12.4 12.4 100 90 0.3 0.8 1019.2 0.0000 0.0000
16:16 12.5 12.5 100 90 0.3 1.1 1018.9 0.0000 0.0000
16:27 12.5 12.5 100 90 0.3 0.8 1018.9 0.0000 0.0000
16:46 12.6 12.6 100 270 0.3 0.6 1018.7 0.0000 0.0000
16:57 12.6 12.6 100 6 0.3 0.6 1018.7 0.0000 0.0000
17:07 12.6 12.6 100 57 0.3 0.8 1018.8 0.0000 0.0000
17:16 12.7 12.7 100 45 0.3 0.8 1018.7 0.0000 0.0000
17:27 12.6 12.6 100 45 0.3 0.6 1018.6 0.0000 0.0000
17:37 12.6 12.6 100 14 0.3 0.8 1018.6 0.0000 0.0000
17:47 12.4 12.4 100 270 0.6 0.8 1018.5 0.0000 0.0000
17:57 12.3 12.3 100 270 0.3 0.8 1018.6 0.0000 0.0000
18:08 11.9 11.9 100 349 0.3 0.8 1018.4 0.0000 0.0000
18:17 11.5 11.5 100 341 0.3 0.8 1018.4 0.0000 0.0000
18:27 11.2 11.2 100 310 0.3 0.8 1018.4 0.0000 0.0000
18:37 10.9 10.9 100 318 0.3 0.8 1018.5 0.0000 0.0000
18:48 10.6 10.6 100 310 0.3 0.8 1018.4 0.0000 0.0000
18:58 10.3 10.3 100 347 0.3 0.6 1018.3 0.0000 0.0000
19:07 10.1 10.1 100 348 0.3 0.8 1018.4 0.0000 0.0000
19:18 9.9 9.9 100 21 0.3 0.6 1018.3 0.0000 0.0000
19:28 9.7 9.7 100 55 0.3 0.8 1018.2 0.0000 0.0000
19:38 9.6 9.6 100 45 0.3 0.8 1018.1 0.0000 0.0000
19:48 9.5 9.5 100 57 0.3 0.6 1018 0.0000 0.0000
19:58 9.4 9.4 100 60 0.3 0.8 1017.9 0.0000 0.0000

DAY STATISTIC

2019-10-23
TEMPERATURE
AVERAGE
10.5
HIGH
12.7
17:16
LOW
8.1
05:07
PRESSURE
AVERAGE
1020.0
HIGH
1021.2
09:55
LOW
1017.9
19:58
DEWPOINT
AVERAGE
10.5
HIGH
12.7
17:16
LOW
8.1
05:07
HUMIDITY
AVERAGE
100
HIGH
100
00:01
LOW
100
00:01
WIND SPEED
AVERAGE
0.4
HIGH
0.6
07:15
WIND GUST
AVERAGE
0.8
HIGH
1.7
11:05
WIND DIRECTION
PREVAILING
E
32%
N
11.0
NE
23.0
E
32.0
SE
2.0
S
1.0
SW
5.0
W
12.0
NW
14.0
PRECIPITATION
RAIN HOUR
0.0
RAIN DAY
0.0
TEMPERATURE (°C)
LOW
8.1
HIGH
12.7
AVERAGE
10.5
PRESSURE (hpa)
LOW
1017.9
HIGH
1021.2
AVERAGE
1020.0
DEVICE